createdAt,value
2018-10-21T00:02:02.134Z,2.90
2018-10-21T00:04:31.720Z,2.93
2018-10-21T00:07:01.155Z,2.47
2018-10-21T00:09:30.806Z,2.70
2018-10-21T00:12:00.309Z,2.37
2018-10-21T00:14:29.633Z,2.67
2018-10-21T00:16:59.342Z,2.47
2018-10-21T00:19:28.715Z,2.70
2018-10-21T00:21:58.113Z,2.70
2018-10-21T00:24:27.557Z,2.50
2018-10-21T00:26:57.124Z,3.40
2018-10-21T00:29:26.468Z,3.90
2018-10-21T00:31:56.224Z,2.83
2018-10-21T00:34:25.531Z,2.80
2018-10-21T00:36:54.807Z,2.50
2018-10-21T00:39:24.496Z,2.83
2018-10-21T00:41:53.602Z,2.93
2018-10-21T00:44:23.883Z,2.40
2018-10-21T00:46:53.618Z,3.27
2018-10-21T00:49:23.399Z,2.97
2018-10-21T00:51:52.948Z,3.00
2018-10-21T00:54:22.943Z,2.90
2018-10-21T00:56:52.412Z,2.90
2018-10-21T00:59:21.999Z,2.80
2018-10-21T01:01:52.039Z,2.53
2018-10-21T01:04:21.425Z,2.77
2018-10-21T01:06:50.718Z,2.70
2018-10-21T01:09:20.339Z,2.43
2018-10-21T01:11:49.782Z,3.10
2018-10-21T01:14:18.877Z,2.70
2018-10-21T01:16:48.209Z,3.30
2018-10-21T01:19:17.608Z,3.03
2018-10-21T01:21:46.996Z,2.87
2018-10-21T01:24:16.485Z,2.93
2018-10-21T01:26:46.089Z,2.77
2018-10-21T01:29:15.477Z,3.27
2018-10-21T01:31:44.934Z,2.37
2018-10-21T01:34:14.461Z,2.30
2018-10-21T01:36:43.889Z,3.00
2018-10-21T01:39:13.466Z,2.63
2018-10-21T01:41:42.954Z,2.87
2018-10-21T01:44:12.245Z,2.83
2018-10-21T01:46:41.946Z,3.00
2018-10-21T01:49:11.547Z,3.27
2018-10-21T01:51:40.999Z,3.20
2018-10-21T01:54:10.531Z,2.53
2018-10-21T01:56:40.258Z,2.50
2018-10-21T01:59:09.764Z,2.50
2018-10-21T02:01:39.106Z,2.87
2018-10-21T02:04:08.848Z,2.80
2018-10-21T02:06:38.387Z,3.00
2018-10-21T02:09:08.167Z,2.97
2018-10-21T02:11:37.715Z,2.73
2018-10-21T02:14:07.400Z,2.87
2018-10-21T02:16:36.718Z,2.70
2018-10-21T02:19:06.362Z,2.67
2018-10-21T02:21:35.803Z,2.53
2018-10-21T02:24:05.036Z,2.83
2018-10-21T02:26:34.586Z,2.27
2018-10-21T02:29:04.453Z,2.30
2018-10-21T02:31:33.782Z,3.20
2018-10-21T02:34:03.177Z,3.17
2018-10-21T02:36:32.647Z,2.67
2018-10-21T02:39:02.096Z,2.47
2018-10-21T02:41:44.047Z,2.60
2018-10-21T02:44:19.794Z,2.57
2018-10-21T02:46:50.181Z,2.70
2018-10-21T02:49:20.337Z,2.70
2018-10-21T02:51:54.748Z,2.73
2018-10-21T02:54:28.488Z,2.80
2018-10-21T02:56:57.865Z,3.47
2018-10-21T02:59:27.416Z,2.50
2018-10-21T03:01:56.692Z,2.73
2018-10-21T03:04:26.096Z,3.70
2018-10-21T03:06:55.652Z,2.63
2018-10-21T03:09:25.239Z,2.70
2018-10-21T03:11:54.609Z,2.77
2018-10-21T03:14:23.971Z,2.83
2018-10-21T03:16:53.499Z,3.20
2018-10-21T03:19:22.933Z,2.47
2018-10-21T03:21:52.611Z,2.97
2018-10-21T03:24:22.308Z,2.60
2018-10-21T03:26:51.704Z,3.17
2018-10-21T03:29:21.296Z,2.80
2018-10-21T03:31:51.004Z,2.80
2018-10-21T03:34:20.558Z,2.57
2018-10-21T03:36:49.980Z,2.33
2018-10-21T03:39:19.818Z,2.50
2018-10-21T03:41:49.374Z,2.73
2018-10-21T03:44:18.935Z,2.90
2018-10-21T03:46:48.423Z,2.70
2018-10-21T03:49:17.789Z,2.90
2018-10-21T03:51:47.181Z,2.50
2018-10-21T03:54:16.883Z,2.17
2018-10-21T03:56:46.459Z,3.17
2018-10-21T03:59:15.946Z,3.30
2018-10-21T04:01:45.426Z,2.50
2018-10-21T04:04:14.914Z,2.60
2018-10-21T04:06:44.658Z,2.70
2018-10-21T04:09:14.050Z,2.80
2018-10-21T04:11:43.522Z,2.67
2018-10-21T04:14:13.139Z,2.50
2018-10-21T04:16:42.603Z,2.90
2018-10-21T04:19:12.018Z,3.33
2018-10-21T04:21:41.540Z,2.80
2018-10-21T04:24:11.045Z,3.57
2018-10-21T04:26:40.528Z,3.30
2018-10-21T04:29:10.432Z,3.20
2018-10-21T04:31:39.872Z,2.80
2018-10-21T04:34:09.556Z,3.33
2018-10-21T04:36:39.300Z,3.23
2018-10-21T04:39:19.463Z,3.07
2018-10-21T04:41:49.356Z,2.73
2018-10-21T04:47:18.920Z,3.03
2018-10-21T04:49:48.444Z,2.80
2018-10-21T04:52:17.809Z,3.13
2018-10-21T04:54:47.208Z,3.53
2018-10-21T04:57:16.699Z,3.50
2018-10-21T04:59:46.094Z,3.17
2018-10-21T05:02:15.620Z,3.23
2018-10-21T05:04:45.310Z,3.30
2018-10-21T05:07:14.705Z,3.40
2018-10-21T05:09:44.218Z,3.37
2018-10-21T05:12:13.637Z,3.37
2018-10-21T05:14:43.153Z,3.50
2018-10-21T05:17:12.758Z,3.50
2018-10-21T05:19:41.885Z,3.03
2018-10-21T05:22:11.380Z,3.47
2018-10-21T05:24:40.681Z,3.00
2018-10-21T05:27:10.035Z,3.50
2018-10-21T05:29:39.566Z,3.00
2018-10-21T05:32:09.080Z,3.43
2018-10-21T05:34:38.397Z,2.93
2018-10-21T05:37:07.934Z,3.40
2018-10-21T05:39:37.306Z,3.27
2018-10-21T05:42:06.606Z,3.17
2018-10-21T05:44:35.988Z,3.10
2018-10-21T05:47:05.523Z,3.03
2018-10-21T05:49:34.721Z,3.43
2018-10-21T05:52:04.683Z,3.27
2018-10-21T05:54:38.161Z,4.07
2018-10-21T05:57:07.558Z,3.30
2018-10-21T05:59:37.084Z,3.47
2018-10-21T06:02:06.682Z,3.27
2018-10-21T06:04:35.977Z,4.17
2018-10-21T06:07:05.939Z,3.30
2018-10-21T06:09:35.188Z,3.83
2018-10-21T06:12:04.809Z,4.27
2018-10-21T06:14:34.478Z,3.87
2018-10-21T06:17:11.034Z,4.00
2018-10-21T06:19:43.129Z,3.93
2018-10-21T06:22:12.746Z,3.93
2018-10-21T06:24:42.308Z,4.37
2018-10-21T06:27:11.501Z,4.07
2018-10-21T06:29:40.925Z,4.40
2018-10-21T06:32:10.454Z,4.23
2018-10-21T06:34:39.741Z,4.90
2018-10-21T06:37:09.094Z,4.53
2018-10-21T06:39:38.526Z,4.97
2018-10-21T06:42:07.990Z,4.57
2018-10-21T06:44:37.208Z,4.87
2018-10-21T06:47:06.437Z,4.53
2018-10-21T06:49:35.923Z,5.00
2018-10-21T06:52:05.295Z,5.07
2018-10-21T06:54:34.791Z,4.90
2018-10-21T06:57:04.334Z,6.30
2018-10-21T06:59:33.699Z,4.50
2018-10-21T07:02:04.098Z,5.23
2018-10-21T07:04:33.515Z,5.60
2018-10-21T07:07:03.683Z,5.77
2018-10-21T07:09:33.198Z,5.87
2018-10-21T07:12:02.295Z,6.37
2018-10-21T07:14:31.915Z,5.80
2018-10-21T07:17:01.522Z,6.13
2018-10-21T07:19:30.857Z,5.67
2018-10-21T07:22:00.371Z,5.80
2018-10-21T07:24:30.122Z,5.73
2018-10-21T07:26:59.540Z,5.50
2018-10-21T07:29:29.359Z,5.90
2018-10-21T07:31:59.132Z,5.57
2018-10-21T07:34:28.983Z,5.97
2018-10-21T07:36:58.597Z,6.13
2018-10-21T07:39:28.085Z,5.90
2018-10-21T07:41:57.416Z,5.53
2018-10-21T07:44:27.128Z,5.90
2018-10-21T07:46:56.777Z,7.03
2018-10-21T07:49:26.441Z,6.07
2018-10-21T07:51:56.056Z,6.50
2018-10-21T07:54:26.028Z,7.37
2018-10-21T07:56:55.754Z,6.33
2018-10-21T07:59:25.199Z,7.07
2018-10-21T08:01:54.689Z,6.43
2018-10-21T08:04:24.765Z,6.70
2018-10-21T08:07:05.640Z,6.70
2018-10-21T08:09:35.137Z,7.37
2018-10-21T08:12:04.494Z,6.83
2018-10-21T08:14:35.016Z,7.40
2018-10-21T08:17:04.678Z,6.77
2018-10-21T08:19:34.226Z,7.40
2018-10-21T08:22:04.474Z,6.03
2018-10-21T08:24:33.575Z,6.13
2018-10-21T08:27:03.158Z,6.93
2018-10-21T08:29:32.680Z,7.50
2018-10-21T08:32:02.067Z,7.50
2018-10-21T08:34:31.337Z,7.23
2018-10-21T08:37:01.026Z,6.90
2018-10-21T08:39:30.399Z,7.67
2018-10-21T08:41:59.727Z,7.43
2018-10-21T08:44:29.239Z,7.30
2018-10-21T08:46:58.399Z,7.17
2018-10-21T08:49:27.970Z,7.80
2018-10-21T08:51:57.687Z,7.57
2018-10-21T08:54:27.017Z,7.80
2018-10-21T08:56:56.510Z,7.93
2018-10-21T08:59:26.322Z,7.87
2018-10-21T09:01:55.764Z,8.07
2018-10-21T09:04:25.518Z,7.57
2018-10-21T09:06:55.187Z,7.90
2018-10-21T09:09:24.835Z,8.07
2018-10-21T09:11:54.912Z,7.53
2018-10-21T09:14:24.410Z,8.33
2018-10-21T09:16:53.886Z,7.90
2018-10-21T09:19:23.905Z,8.13
2018-10-21T09:21:53.952Z,7.63
2018-10-21T09:24:23.223Z,7.80
2018-10-21T09:26:52.882Z,7.13
2018-10-21T09:29:22.523Z,8.33
2018-10-21T09:31:52.081Z,7.33
2018-10-21T09:34:21.809Z,7.30
2018-10-21T09:36:51.798Z,7.23
2018-10-21T09:39:21.219Z,6.80
2018-10-21T09:41:50.609Z,7.43
2018-10-21T09:44:20.217Z,6.57
2018-10-21T09:46:49.964Z,7.37
2018-10-21T09:49:19.484Z,7.83
2018-10-21T09:51:49.418Z,7.03
2018-10-21T09:54:19.268Z,7.70
2018-10-21T09:56:48.602Z,8.20
2018-10-21T09:59:18.197Z,7.67
2018-10-21T10:01:52.679Z,7.57
2018-10-21T10:04:22.625Z,7.40
2018-10-21T10:06:51.992Z,7.37
2018-10-21T10:09:21.514Z,7.73
2018-10-21T10:11:51.349Z,7.10
2018-10-21T10:14:20.917Z,8.43
2018-10-21T10:16:50.382Z,7.70
2018-10-21T10:19:20.261Z,7.10
2018-10-21T10:21:49.473Z,8.03
2018-10-21T10:24:18.927Z,7.03
2018-10-21T10:26:48.528Z,7.50
2018-10-21T10:29:17.820Z,7.23
2018-10-21T10:31:47.179Z,7.50
2018-10-21T10:34:16.841Z,7.57
2018-10-21T10:36:46.358Z,7.60
2018-10-21T10:39:15.765Z,7.20
2018-10-21T10:41:45.475Z,7.37
2018-10-21T10:44:15.030Z,6.83
2018-10-21T10:46:44.490Z,6.50
2018-10-21T10:49:14.283Z,7.13
2018-10-21T10:51:43.593Z,8.07
2018-10-21T10:54:13.062Z,7.30
2018-10-21T10:56:42.807Z,7.33
2018-10-21T10:59:12.216Z,7.63
2018-10-21T11:01:41.615Z,7.10
2018-10-21T11:04:11.498Z,7.33
2018-10-21T11:06:40.761Z,7.50
2018-10-21T11:09:11.049Z,7.17
2018-10-21T11:11:40.617Z,7.77
2018-10-21T11:14:09.826Z,7.90
2018-10-21T11:16:39.082Z,7.00
2018-10-21T11:19:08.649Z,7.37
2018-10-21T11:21:38.279Z,8.47
2018-10-21T11:24:07.665Z,7.33
2018-10-21T11:26:37.380Z,6.90
2018-10-21T11:29:06.576Z,8.20
2018-10-21T11:31:35.758Z,7.70
2018-10-21T11:34:05.305Z,7.63
2018-10-21T11:36:34.712Z,7.90
2018-10-21T11:39:05.172Z,8.57
2018-10-21T11:41:34.690Z,8.83
2018-10-21T11:44:03.935Z,8.50
2018-10-21T11:46:33.394Z,9.00
2018-10-21T11:49:02.953Z,9.03
2018-10-21T11:51:32.386Z,8.50
2018-10-21T11:54:01.831Z,8.47
2018-10-21T11:56:32.122Z,8.43
2018-10-21T11:59:01.388Z,8.37
2018-10-21T12:01:30.967Z,8.40
2018-10-21T12:04:00.715Z,8.00
2018-10-21T12:06:29.950Z,8.00
2018-10-21T12:08:59.167Z,7.93
2018-10-21T12:11:28.827Z,8.30
2018-10-21T12:13:58.343Z,9.33
2018-10-21T12:16:27.877Z,9.53
2018-10-21T12:18:57.819Z,9.27
2018-10-21T12:21:27.106Z,8.50
2018-10-21T12:23:56.791Z,9.03
2018-10-21T12:26:26.693Z,8.77
2018-10-21T12:28:56.419Z,8.57
2018-10-21T12:31:25.891Z,8.30
2018-10-21T12:33:56.029Z,8.23
2018-10-21T12:36:25.511Z,8.53
2018-10-21T12:38:54.973Z,8.87
2018-10-21T12:41:24.753Z,8.47
2018-10-21T12:43:54.310Z,9.13
2018-10-21T12:46:23.993Z,8.63
2018-10-21T12:48:53.849Z,9.20
2018-10-21T12:51:23.364Z,9.37
2018-10-21T12:53:53.122Z,9.50
2018-10-21T12:56:22.781Z,8.43
2018-10-21T12:58:51.989Z,8.03
2018-10-21T13:01:21.500Z,8.00
2018-10-21T13:03:51.186Z,7.87
2018-10-21T13:06:20.477Z,8.13
2018-10-21T13:08:49.924Z,7.97
2018-10-21T13:11:19.447Z,8.30
2018-10-21T13:13:49.025Z,8.70
2018-10-21T13:16:18.657Z,8.10
2018-10-21T13:18:48.479Z,8.77
2018-10-21T13:21:17.735Z,8.63
2018-10-21T13:23:47.111Z,8.23
2018-10-21T13:26:16.792Z,7.30
2018-10-21T13:28:46.080Z,7.97
2018-10-21T13:31:15.903Z,8.07
2018-10-21T13:33:45.621Z,8.03
2018-10-21T13:36:15.026Z,8.37
2018-10-21T13:38:44.685Z,8.30
2018-10-21T13:41:15.031Z,8.30
2018-10-21T13:43:44.534Z,8.90
2018-10-21T13:46:14.111Z,8.77
2018-10-21T13:48:43.857Z,8.70
2018-10-21T13:51:13.271Z,8.57
2018-10-21T13:53:42.881Z,8.37
2018-10-21T13:56:12.758Z,8.03
2018-10-21T13:58:42.193Z,8.37
2018-10-21T14:01:11.919Z,8.93
2018-10-21T14:03:41.743Z,8.97
2018-10-21T14:06:11.298Z,8.13
2018-10-21T14:08:40.868Z,8.23
2018-10-21T14:11:11.018Z,8.13
2018-10-21T14:13:40.309Z,7.63
2018-10-21T14:16:09.742Z,9.10
2018-10-21T14:18:39.612Z,8.17
2018-10-21T14:21:09.210Z,8.43
2018-10-21T14:23:38.684Z,8.17
2018-10-21T14:26:08.617Z,8.57
2018-10-21T14:28:37.915Z,7.77
2018-10-21T14:31:07.656Z,8.40
2018-10-21T14:33:37.550Z,9.50
2018-10-21T14:36:07.112Z,10.83
2018-10-21T14:38:36.512Z,8.77
2018-10-21T14:41:06.313Z,8.67
2018-10-21T14:43:35.650Z,8.77
2018-10-21T14:46:05.184Z,8.77
2018-10-21T14:48:34.869Z,9.03
2018-10-21T14:51:04.255Z,8.63
2018-10-21T14:53:33.576Z,10.20
2018-10-21T14:56:03.561Z,8.63
2018-10-21T14:58:32.932Z,9.10
2018-10-21T15:01:02.351Z,8.70
2018-10-21T15:03:32.012Z,8.90
2018-10-21T15:06:01.366Z,10.00
2018-10-21T15:08:30.628Z,9.50
2018-10-21T15:11:00.200Z,10.87
2018-10-21T15:13:29.727Z,9.23
2018-10-21T15:15:59.262Z,10.03
2018-10-21T15:18:29.103Z,9.70
2018-10-21T15:20:58.235Z,9.27
2018-10-21T15:23:27.720Z,9.37
2018-10-21T15:25:57.739Z,10.87
2018-10-21T15:28:27.034Z,9.43
2018-10-21T15:30:56.305Z,10.50
2018-10-21T15:33:26.038Z,10.70
2018-10-21T15:35:55.539Z,10.60
2018-10-21T15:38:24.841Z,10.93
2018-10-21T15:40:54.988Z,10.60
2018-10-21T15:46:57.583Z,9.93
2018-10-21T15:49:26.978Z,10.23
2018-10-21T15:51:56.247Z,10.40
2018-10-21T15:54:25.823Z,10.47
2018-10-21T15:56:55.140Z,10.33
2018-10-21T15:59:24.482Z,10.50
2018-10-21T16:01:54.050Z,10.53
2018-10-21T16:04:24.481Z,10.90
2018-10-21T16:06:54.369Z,11.63
2018-10-21T16:09:24.846Z,12.00
2018-10-21T16:11:54.100Z,10.77
2018-10-21T16:14:23.695Z,12.07
2018-10-21T16:16:53.197Z,12.17
2018-10-21T16:19:22.508Z,11.73
2018-10-21T16:21:52.107Z,12.90
2018-10-21T16:24:22.860Z,10.70
2018-10-21T16:26:52.338Z,11.47
2018-10-21T16:29:21.929Z,11.13
2018-10-21T16:31:51.984Z,11.80
2018-10-21T16:34:21.602Z,11.47
2018-10-21T16:36:51.435Z,11.00
2018-10-21T16:39:21.392Z,12.03
2018-10-21T16:41:51.006Z,11.17
2018-10-21T16:44:20.786Z,11.57
2018-10-21T16:46:50.602Z,11.90
2018-10-21T16:49:20.214Z,11.23
2018-10-21T16:51:49.979Z,10.83
2018-10-21T16:54:19.823Z,12.10
2018-10-21T16:56:49.306Z,10.73
2018-10-21T16:59:19.428Z,10.50
2018-10-21T17:01:48.872Z,11.97
2018-10-21T17:04:18.387Z,10.90
2018-10-21T17:06:48.477Z,10.83
2018-10-21T17:09:18.221Z,10.57
2018-10-21T17:11:47.711Z,10.50
2018-10-21T17:14:17.352Z,10.63
2018-10-21T17:16:47.062Z,10.77
2018-10-21T17:19:16.616Z,10.87
2018-10-21T17:21:46.419Z,10.70
2018-10-21T17:24:15.816Z,10.90
2018-10-21T17:26:45.174Z,10.73
2018-10-21T17:29:14.729Z,11.70
2018-10-21T17:31:44.083Z,11.33
2018-10-21T17:34:13.468Z,11.97
2018-10-21T17:36:43.021Z,11.33
2018-10-21T17:39:14.957Z,12.57
2018-10-21T17:41:44.482Z,11.67
2018-10-21T17:44:13.879Z,11.80
2018-10-21T17:46:43.504Z,11.80
2018-10-21T17:49:12.955Z,12.67
2018-10-21T17:51:42.297Z,12.50
2018-10-21T17:54:11.940Z,11.87
2018-10-21T17:57:14.174Z,12.30
2018-10-21T17:59:43.731Z,12.93
2018-10-21T18:02:13.235Z,12.67
2018-10-21T18:04:42.727Z,12.67
2018-10-21T18:07:12.112Z,13.20
2018-10-21T18:09:41.687Z,12.60
2018-10-21T18:12:11.079Z,12.70
2018-10-21T18:14:40.396Z,13.10
2018-10-21T18:17:10.023Z,13.83
2018-10-21T18:19:39.459Z,12.93
2018-10-21T18:22:09.348Z,12.87
2018-10-21T18:24:39.707Z,12.93
2018-10-21T18:27:09.371Z,12.57
2018-10-21T18:29:38.821Z,13.53
2018-10-21T18:32:08.469Z,13.43
2018-10-21T18:34:37.910Z,13.13
2018-10-21T18:37:08.105Z,13.13
2018-10-21T18:39:37.987Z,12.90
2018-10-21T18:42:07.558Z,13.17
2018-10-21T18:44:36.926Z,13.13
2018-10-21T18:47:07.045Z,13.40
2018-10-21T18:49:37.493Z,13.63
2018-10-21T18:52:06.823Z,13.20
2018-10-21T18:54:36.290Z,14.50
2018-10-21T18:57:07.138Z,13.60
2018-10-21T18:59:36.417Z,14.13
2018-10-21T19:02:06.417Z,14.33
2018-10-21T19:04:35.908Z,13.70
2018-10-21T19:07:06.600Z,13.87
2018-10-21T19:09:36.406Z,14.97
2018-10-21T19:12:05.736Z,12.93
2018-10-21T19:14:35.165Z,13.43
2018-10-21T19:17:04.952Z,13.93
2018-10-21T19:19:34.169Z,13.70
2018-10-21T19:22:04.214Z,14.77
2018-10-21T19:24:34.012Z,13.87
2018-10-21T19:27:03.575Z,15.07
2018-10-21T19:29:32.936Z,15.70
2018-10-21T19:32:02.515Z,16.13
2018-10-21T19:34:31.990Z,16.37
2018-10-21T19:37:01.338Z,17.90
2018-10-21T19:39:30.970Z,16.80
2018-10-21T19:42:00.384Z,18.90
2018-10-21T19:44:29.694Z,18.07
2018-10-21T19:46:59.583Z,20.50
2018-10-21T19:49:29.066Z,19.43
2018-10-21T19:51:58.736Z,20.17
2018-10-21T19:54:28.400Z,19.83
2018-10-21T19:56:57.687Z,18.03
2018-10-21T19:59:27.232Z,19.67
2018-10-21T20:01:57.129Z,19.50
2018-10-21T20:04:26.259Z,18.00
2018-10-21T20:06:55.640Z,18.80
2018-10-21T20:09:25.402Z,18.20
2018-10-21T20:11:54.831Z,17.13
2018-10-21T20:14:24.273Z,17.50
2018-10-21T20:16:53.998Z,18.37
2018-10-21T20:19:23.434Z,15.97
2018-10-21T20:21:52.901Z,17.70
2018-10-21T20:24:22.766Z,18.70
2018-10-21T20:26:52.153Z,19.17
2018-10-21T20:29:21.633Z,19.17
2018-10-21T20:31:52.361Z,19.33
2018-10-21T20:34:22.655Z,17.90
2018-10-21T20:36:52.440Z,17.03
2018-10-21T20:39:22.157Z,12.97
2018-10-21T20:41:51.705Z,12.33
2018-10-21T20:44:21.470Z,11.00
2018-10-21T20:46:51.293Z,7.23
2018-10-21T20:49:21.553Z,5.70
2018-10-21T20:51:51.514Z,5.43
2018-10-21T20:54:21.162Z,4.73
2018-10-21T20:56:50.731Z,3.07
2018-10-21T20:59:20.389Z,2.70
2018-10-21T21:01:49.934Z,2.40
2018-10-21T21:04:19.333Z,2.33
2018-10-21T21:06:48.801Z,2.53
2018-10-21T21:09:18.226Z,2.43
2018-10-21T21:11:47.612Z,1.70
2018-10-21T21:14:17.210Z,1.70
2018-10-21T21:16:46.782Z,1.90
2018-10-21T21:19:16.086Z,1.40
2018-10-21T21:21:45.423Z,1.63
2018-10-21T21:24:15.045Z,1.10
2018-10-21T21:26:44.383Z,1.03
2018-10-21T21:29:14.017Z,1.23
2018-10-21T21:31:43.804Z,1.07
2018-10-21T21:34:13.141Z,1.03
2018-10-21T21:36:42.754Z,1.00
2018-10-21T21:39:13.684Z,0.90
2018-10-21T21:41:44.402Z,1.40
2018-10-21T21:44:13.819Z,1.20
2018-10-21T21:46:43.726Z,1.50
2018-10-21T21:49:14.102Z,1.50
2018-10-21T21:51:43.538Z,1.50
2018-10-21T21:54:14.183Z,1.67
2018-10-21T21:56:45.074Z,1.50
2018-10-21T21:59:14.675Z,1.90
2018-10-21T22:01:44.376Z,2.00
2018-10-21T22:04:13.695Z,2.40
2018-10-21T22:06:43.212Z,1.93
2018-10-21T22:09:13.637Z,2.50
2018-10-21T22:11:42.922Z,2.90
2018-10-21T22:14:12.147Z,2.67
2018-10-21T22:16:41.900Z,2.70
2018-10-21T22:19:11.144Z,2.60
2018-10-21T22:21:40.291Z,2.43
2018-10-21T22:24:10.421Z,2.30
2018-10-21T22:26:39.912Z,2.60
2018-10-21T22:29:09.182Z,2.63
2018-10-21T22:31:38.853Z,2.90
2018-10-21T22:34:08.085Z,2.00
2018-10-21T22:36:37.362Z,3.00
2018-10-21T22:39:07.912Z,2.27
2018-10-21T22:41:37.548Z,3.07
2018-10-21T22:44:06.975Z,3.43
2018-10-21T22:46:36.670Z,3.57
2018-10-21T22:49:06.445Z,2.60
2018-10-21T22:51:35.885Z,2.40
2018-10-21T22:54:05.740Z,2.67
2018-10-21T22:56:35.085Z,3.10
2018-10-21T22:59:04.463Z,2.57
2018-10-21T23:01:34.198Z,2.33
2018-10-21T23:04:03.322Z,2.53
2018-10-21T23:06:32.628Z,2.93
2018-10-21T23:09:02.197Z,2.50
2018-10-21T23:11:31.656Z,2.60
2018-10-21T23:14:00.990Z,2.90
2018-10-21T23:16:30.797Z,2.33
2018-10-21T23:19:10.384Z,3.07
2018-10-21T23:21:40.332Z,2.40
2018-10-21T23:24:09.605Z,2.73
2018-10-21T23:26:39.104Z,2.27
2018-10-21T23:29:08.733Z,2.13
2018-10-21T23:31:38.305Z,2.30
2018-10-21T23:34:07.725Z,2.17
2018-10-21T23:36:37.415Z,1.60
2018-10-21T23:39:07.531Z,2.03
2018-10-21T23:41:36.909Z,1.73
2018-10-21T23:44:06.588Z,1.80
2018-10-21T23:46:35.780Z,2.23
2018-10-21T23:49:05.000Z,2.60
2018-10-21T23:51:34.781Z,1.93
2018-10-21T23:54:04.134Z,2.30
2018-10-21T23:56:33.482Z,2.17
2018-10-21T23:59:03.083Z,1.63
